Pagrindinis puslapis
METAR-TAF:

METAR-TAF

Oro uostai :

Muş, Turkija

platuma: 38-45N, ilguma: 041-40E, Aukštis: 1266 m

Dabartinis oras

Ataskaita buvo paskelbta 37 minutes, ne 06:50 UTC
Vėjas 3 kt iš Vakarų/Šiaurės Vakarų, svyruoja nuo Pietų/Pietvakarių ir Šiaurės
Temperatūra 21°C
Drėgmė 38%
Slėgis 1019 hPa
Matomumas 10 km arba daugiau
nėra debesų žemiau 1500 m ir nėra kamuolinių lietaus debesų

METAR: LTCK 140650Z 29003KT 210V010 CAVOK 21/06 Q1019

Laikas: 10:27 (07:27 UTC)

Prognozė

Ataskaita buvo paskelbta 2 valandos ir 47 minutes, ne 04:40 UTC
Prognozė galioja nuo 14 metu 06 UTC su 14 metu 15 UTC
Vėjas 2 kt nuo kintamojo kryptimis
Matomumas 10 km arba daugiau
nėra debesų žemiau 1500 m ir nėra kamuolinių lietaus debesų
Laikinai
nuo 14 metu 10 UTC su 14 metu 14 UTC
Vėjas 12 kt iš Vakarų

TAF: LTCK 140440Z 1406/1415 VRB02KT CAVOK TEMPO 1410/1414 27012KT

Orai ataskaitas ir orų prognozės (METAR, TAF).

turimą stotys yra geltonos ir raudonos taškus žemėlapyje.

Perkelti pele per norėdami pamatyti stoties vardą.

Tada spustelėkite, norėdami matyti oro stebėjimo ir prognozės.

Norėdami pakeisti žemėlapį: spustelėkite ant žalios mygtukų su juodo kryžiaus žemyn,; žalią mygtuką su brūkšneliu, jei norite nutolinti; arba žalių rodyklių gretimoms žemėlapius.


METAR-TAF: